Time;durP1;ratioP1;P1;durP2;ratioP2;P2;SDS_P1;SDS_P2;PMS_P1;PMS_P2;Temp;Humidity;BMP_temperature;BMP_pressure;BME280_temperature;BME280_humidity;BME280_pressure;Samples;Min_cycle;Max_cycle;Signal;HPM_P1;HPM_P2
2021/05/28 00:01:34;;;;;;;8.00;5.85;;;;;;;13.34;100.00;102386.00;5073188;28;20044;-65
2021/05/28 00:04:00;;;;;;;7.10;3.80;;;;;;;13.37;100.00;102384.72;5073029;28;20047;-67
2021/05/28 00:06:26;;;;;;;5.03;4.45;;;;;;;13.35;100.00;102379.44;5073066;28;20036;-65
2021/05/28 00:08:52;;;;;;;4.75;3.72;;;;;;;13.33;100.00;102387.06;5071729;28;20597;-65
2021/05/28 00:11:17;;;;;;;6.22;4.00;;;;;;;13.31;100.00;102386.44;5072982;28;20033;-66
2021/05/28 00:13:43;;;;;;;6.25;4.50;;;;;;;13.33;100.00;102387.06;5072875;28;20497;-64
2021/05/28 00:16:10;;;;;;;4.55;4.15;;;;;;;13.35;100.00;102384.91;5073076;28;20147;-67
2021/05/28 00:18:36;;;;;;;8.43;7.30;;;;;;;13.35;100.00;102397.81;5073016;28;20071;-66
2021/05/28 00:21:02;;;;;;;13.73;10.82;;;;;;;13.35;100.00;102390.41;5072971;28;20119;-67
2021/05/28 00:23:27;;;;;;;16.25;10.30;;;;;;;13.35;100.00;102387.66;5072731;28;20036;-67
2021/05/28 00:25:53;;;;;;;10.55;9.45;;;;;;;13.36;100.00;102396.75;5072623;28;20048;-65
2021/05/28 00:28:19;;;;;;;10.57;7.75;;;;;;;13.38;100.00;102394.63;5071469;28;20059;-64
2021/05/28 00:30:45;;;;;;;10.02;8.20;;;;;;;13.38;100.00;102390.00;5072730;28;20040;-67
2021/05/28 00:33:10;;;;;;;7.97;6.25;;;;;;;13.40;100.00;102396.09;5072580;28;20116;-65
2021/05/28 00:35:36;;;;;;;8.30;7.55;;;;;;;13.41;100.00;102400.50;5072595;28;20047;-66
2021/05/28 00:38:02;;;;;;;8.52;6.60;;;;;;;13.41;100.00;102394.19;5072616;28;20398;-64
2021/05/28 00:40:28;;;;;;;8.63;6.70;;;;;;;13.40;100.00;102398.84;5072308;28;20043;-66
2021/05/28 00:42:53;;;;;;;9.48;8.07;;;;;;;13.40;100.00;102398.84;5072336;28;20040;-66
2021/05/28 00:45:19;;;;;;;12.00;8.18;;;;;;;13.42;100.00;102401.34;5072360;28;20032;-65
2021/05/28 00:47:45;;;;;;;12.32;7.68;;;;;;;13.41;100.00;102394.19;5072393;28;20029;-65
2021/05/28 00:50:11;;;;;;;12.48;9.02;;;;;;;13.41;100.00;102386.78;5071021;28;20036;-67
2021/05/28 00:52:37;;;;;;;12.18;8.52;;;;;;;13.37;100.00;102382.81;5072246;28;20478;-66
2021/05/28 00:55:04;;;;;;;10.88;9.63;;;;;;;13.36;100.00;102385.75;5072034;28;20040;-67
2021/05/28 00:57:30;;;;;;;19.65;10.88;;;;;;;13.34;100.00;102385.16;5072132;28;20043;-64
2021/05/28 00:59:57;;;;;;;15.75;11.38;;;;;;;13.32;100.00;102390.84;5070717;28;20043;-65
2021/05/28 01:02:25;;;;;;;15.82;10.95;;;;;;;13.29;100.00;102383.06;5072050;28;20040;-64
2021/05/28 01:04:50;;;;;;;18.95;13.10;;;;;;;13.28;100.00;102384.16;5071960;28;20368;-65
2021/05/28 01:07:16;;;;;;;13.45;11.02;;;;;;;13.28;100.00;102389.63;5072099;28;20051;-66
2021/05/28 01:09:42;;;;;;;16.67;11.02;;;;;;;13.25;100.00;102381.84;5071923;28;20041;-66
2021/05/28 01:12:08;;;;;;;13.13;9.75;;;;;;;13.22;100.00;102385.03;5071894;28;20478;-66
2021/05/28 01:14:34;;;;;;;14.50;11.68;;;;;;;13.23;100.00;102387.56;5071515;28;20131;-65
2021/05/28 01:17:00;;;;;;;12.63;11.10;;;;;;;13.24;100.00;102380.16;5071719;28;20116;-67
2021/05/28 01:19:26;;;;;;;14.68;11.40;;;;;;;13.25;100.00;102390.09;5071699;28;20044;-65
2021/05/28 01:21:52;;;;;;;17.88;12.90;;;;;;;13.27;100.00;102394.28;5070293;28;20079;-67
2021/05/28 01:24:18;;;;;;;14.00;11.00;;;;;;;13.30;100.00;102398.47;5072020;28;20035;-64
2021/05/28 01:26:44;;;;;;;14.40;11.52;;;;;;;13.27;100.00;102390.69;5071830;28;20040;-65
2021/05/28 01:29:09;;;;;;;16.13;12.27;;;;;;;13.27;100.00;102393.44;5071536;28;20067;-65
2021/05/28 01:31:36;;;;;;;14.52;11.35;;;;;;;13.24;100.00;102386.50;5071451;28;20040;-66
2021/05/28 01:34:02;;;;;;;16.67;12.18;;;;;;;13.20;100.00;102382.53;5071203;28;20048;-65
2021/05/28 01:36:28;;;;;;;16.75;11.80;;;;;;;13.16;100.00;102385.88;5071391;28;20028;-66
2021/05/28 01:38:54;;;;;;;19.35;12.18;;;;;;;13.12;100.00;102384.66;5070940;28;20040;-65
2021/05/28 01:41:20;;;;;;;18.42;12.85;;;;;;;13.09;100.00;102379.59;5069901;28;20052;-67
2021/05/28 01:43:45;;;;;;;16.10;11.57;;;;;;;13.07;100.00;102388.06;5071219;28;20029;-66
2021/05/28 01:46:11;;;;;;;14.88;12.27;;;;;;;13.05;100.00;102383.88;5071362;28;20033;-66
2021/05/28 01:48:39;;;;;;;17.25;13.23;;;;;;;13.06;100.00;102385.53;5071153;28;20101;-66
2021/05/28 01:51:08;;;;;;;13.88;12.10;;;;;;;13.06;100.00;102385.53;5071569;28;20036;-66
2021/05/28 01:53:34;;;;;;;15.88;12.60;;;;;;;13.06;100.00;102391.03;5070797;28;20563;-66
2021/05/28 01:55:59;;;;;;;18.85;12.88;;;;;;;13.08;100.00;102391.66;5071086;28;20097;-66
2021/05/28 01:58:26;;;;;;;20.73;11.48;;;;;;;13.08;100.00;102389.75;5071016;28;20486;-67
2021/05/28 02:00:56;;;;;;;11.40;10.15;;;;;;;13.07;100.00;102381.75;5071137;28;20089;-67
2021/05/28 02:03:23;;;;;;;12.65;10.32;;;;;;;13.06;100.00;102382.81;5070996;28;20163;-64
2021/05/28 02:05:49;;;;;;;13.18;10.88;;;;;;;13.03;100.00;102375.84;5070981;28;20039;-66
2021/05/28 02:08:15;;;;;;;12.43;9.75;;;;;;;13.02;100.00;102395.28;5070883;28;20032;-67
2021/05/28 02:10:41;;;;;;;13.00;9.77;;;;;;;12.99;100.00;102377.34;5070906;28;20089;-67
2021/05/28 02:13:08;;;;;;;11.88;9.43;;;;;;;12.98;100.00;102384.72;5070713;28;20474;-67
2021/05/28 02:15:33;;;;;;;12.00;9.88;;;;;;;13.00;100.00;102381.75;5070870;28;20066;-65
2021/05/28 02:17:59;;;;;;;11.52;9.05;;;;;;;13.01;100.00;102383.44;5070935;28;20028;-67
2021/05/28 02:20:25;;;;;;;12.80;9.68;;;;;;;13.03;100.00;102378.59;5070811;28;20045;-67
2021/05/28 02:22:51;;;;;;;9.27;8.32;;;;;;;13.03;100.00;102386.81;5070695;28;20032;-66
2021/05/28 02:25:17;;;;;;;11.13;7.88;;;;;;;13.03;100.00;102380.50;5070669;28;20042;-66
2021/05/28 02:27:44;;;;;;;11.35;7.55;;;;;;;13.02;100.00;102381.56;5070528;28;20604;-65
2021/05/28 02:30:11;;;;;;;8.63;6.82;;;;;;;13.01;100.00;102377.13;5070593;28;20501;-67
2021/05/28 02:32:37;;;;;;;8.23;7.38;;;;;;;13.01;100.00;102382.59;5070576;28;20063;-67
2021/05/28 02:35:06;;;;;;;11.52;7.28;;;;;;;12.99;100.00;102389.16;5070580;28;20025;-65
2021/05/28 02:37:32;;;;;;;9.43;8.43;;;;;;;12.99;100.00;102385.56;5069668;28;20032;-64
2021/05/28 02:39:58;;;;;;;8.00;7.28;;;;;;;12.99;100.00;102386.41;5070671;28;20041;-67
2021/05/28 02:42:24;;;;;;;8.48;7.57;;;;;;;12.99;100.00;102391.88;5070571;28;20573;-64
2021/05/28 02:44:52;;;;;;;9.15;6.75;;;;;;;12.97;100.00;102383.03;5070402;28;20075;-67
2021/05/28 02:47:21;;;;;;;7.53;6.75;;;;;;;12.96;100.00;102386.84;5070579;28;20504;-64
2021/05/28 02:49:49;;;;;;;7.68;6.63;;;;;;;12.95;100.00;102384.34;5070334;28;20036;-65
2021/05/28 02:52:15;;;;;;;10.48;6.57;;;;;;;12.93;100.00;102383.72;5073754;28;20054;-64
2021/05/28 02:54:44;;;;;;;8.80;6.55;;;;;;;12.94;100.00;102388.97;5074445;28;20036;-66
2021/05/28 02:57:11;;;;;;;7.63;6.75;;;;;;;12.96;100.00;102380.53;5074512;28;20528;-67
2021/05/28 02:59:36;;;;;;;6.03;5.43;;;;;;;12.95;100.00;102385.16;5074371;28;20033;-65
2021/05/28 03:02:03;;;;;;;7.75;5.20;;;;;;;12.93;100.00;102387.28;5072947;28;20036;-65
2021/05/28 03:04:29;;;;;;;5.93;5.13;;;;;;;12.91;100.00;102381.19;5074184;28;20097;-66
2021/05/28 03:06:55;;;;;;;6.07;5.40;;;;;;;12.89;100.00;102380.56;5074283;28;20372;-66
2021/05/28 03:09:21;;;;;;;7.35;5.70;;;;;;;12.87;100.00;102382.69;5074296;28;20560;-65
2021/05/28 03:11:46;;;;;;;7.82;5.72;;;;;;;12.83;100.00;102381.44;5074255;28;20040;-66
2021/05/28 03:14:12;;;;;;;7.22;6.53;;;;;;;12.81;100.00;102378.06;5074116;28;20047;-63
2021/05/28 03:16:38;;;;;;;9.10;6.32;;;;;;;12.82;100.00;102377.00;5074067;28;20044;-66
2021/05/28 03:19:14;;;;;;;6.80;5.85;;;;;;;12.80;100.00;102387.38;5072644;28;20126;-65
2021/05/28 03:22:30;;;;;;;6.20;5.60;;;;;;;12.80;100.00;102387.38;5073959;28;20398;-64
2021/05/28 03:24:25;;;;;;;6.15;5.55;;;;;;;12.77;100.00;102382.31;5073656;28;20438;-64
2021/05/28 03:26:51;;;;;;;6.50;5.60;;;;;;;12.79;100.00;102380.19;5073997;28;20060;-66
2021/05/28 03:29:16;;;;;;;5.72;5.22;;;;;;;12.79;100.00;102385.69;5073702;28;20414;-64
2021/05/28 03:31:42;;;;;;;6.68;6.05;;;;;;;12.81;100.00;102372.59;5072598;28;20039;-64
2021/05/28 03:34:08;;;;;;;8.80;5.63;;;;;;;12.81;100.00;102378.06;5073760;28;20036;-65
2021/05/28 03:36:33;;;;;;;6.03;5.40;;;;;;;12.81;100.00;102372.59;5073597;28;20048;-66
2021/05/28 03:38:59;;;;;;;5.93;5.45;;;;;;;12.80;100.00;102376.41;5073678;28;20048;-66
2021/05/28 03:41:25;;;;;;;5.95;5.40;;;;;;;12.79;100.00;102380.19;5073534;28;20032;-64
2021/05/28 03:43:51;;;;;;;4.93;4.35;;;;;;;12.79;100.00;102382.09;5073405;28;20071;-66
2021/05/28 03:46:17;;;;;;;6.15;5.10;;;;;;;12.77;100.00;102376.84;5073581;28;20048;-64
2021/05/28 03:48:42;;;;;;;5.47;4.97;;;;;;;12.77;100.00;102382.31;5073418;28;20052;-64
2021/05/28 03:51:08;;;;;;;6.25;4.13;;;;;;;12.76;100.00;102386.13;5073490;28;20079;-66
2021/05/28 03:53:34;;;;;;;4.93;4.43;;;;;;;12.75;100.00;102378.97;5073231;28;20106;-65
2021/05/28 03:56:00;;;;;;;6.85;4.82;;;;;;;12.73;100.00;102381.09;5073290;28;20052;-66
2021/05/28 03:58:26;;;;;;;5.10;4.70;;;;;;;12.73;100.00;102372.88;5073189;28;20041;-64
2021/05/28 04:00:52;;;;;;;4.90;4.50;;;;;;;12.72;100.00;102379.41;5073261;28;20051;-65
2021/05/28 04:03:18;;;;;;;5.13;4.10;;;;;;;12.70;100.00;102373.31;5073217;28;20278;-67
2021/05/28 04:05:44;;;;;;;5.53;4.68;;;;;;;12.70;100.00;102376.06;5073237;28;20115;-64
2021/05/28 04:08:09;;;;;;;6.63;5.00;;;;;;;12.69;100.00;102371.63;5073201;28;20097;-66
2021/05/28 04:10:35;;;;;;;5.38;4.50;;;;;;;12.69;100.00;102371.63;5071657;28;20474;-66
2021/05/28 04:13:01;;;;;;;5.57;4.57;;;;;;;12.66;100.00;102359.16;5072814;28;20043;-65
2021/05/28 04:15:27;;;;;;;4.47;4.07;;;;;;;12.64;100.00;102360.44;5072884;28;20076;-64
2021/05/28 04:17:53;;;;;;;5.80;3.88;;;;;;;12.63;100.00;102358.78;5072933;28;20043;-65
2021/05/28 04:20:18;;;;;;;5.00;3.80;;;;;;;12.62;100.00;102355.19;5073014;28;20403;-66
2021/05/28 04:22:45;;;;;;;5.35;3.80;;;;;;;12.61;100.00;102352.66;5072793;28;20044;-66
2021/05/28 04:25:11;;;;;;;6.47;3.10;;;;;;;12.59;100.00;102352.06;5072866;28;20170;-64
2021/05/28 04:27:37;;;;;;;6.90;3.35;;;;;;;12.57;100.00;102359.66;5072661;28;20143;-63
2021/05/28 04:30:04;;;;;;;6.30;3.70;;;;;;;12.55;100.00;102350.81;5072627;28;20040;-64
2021/05/28 04:32:30;;;;;;;3.72;2.85;;;;;;;12.56;100.00;102360.72;5072593;28;20453;-65
2021/05/28 04:34:57;;;;;;;3.95;3.05;;;;;;;12.55;100.00;102359.03;5072441;28;20090;-67
2021/05/28 04:37:23;;;;;;;5.13;3.05;;;;;;;12.57;100.00;102359.66;5072822;28;20040;-65
2021/05/28 04:39:51;;;;;;;3.08;2.78;;;;;;;12.57;100.00;102355.03;5073021;28;20032;-66
2021/05/28 04:42:17;;;;;;;3.75;2.60;;;;;;;12.57;100.00;102365.13;5072493;28;20086;-64
2021/05/28 04:44:42;;;;;;;3.58;3.03;;;;;;;12.57;100.00;102365.13;5072315;28;20121;-63
2021/05/28 04:47:08;;;;;;;3.40;3.10;;;;;;;12.59;100.00;102371.25;5072361;28;20044;-64
2021/05/28 04:49:33;;;;;;;4.00;2.60;;;;;;;12.62;100.00;102362.56;5070803;28;20052;-67
2021/05/28 04:51:59;;;;;;;3.20;2.90;;;;;;;12.60;100.00;102371.03;5072246;28;20040;-65
2021/05/28 04:54:26;;;;;;;3.72;2.35;;;;;;;12.60;100.00;102367.44;5070886;28;20068;-66
2021/05/28 04:56:53;;;;;;;2.85;2.22;;;;;;;12.59;100.00;102368.50;5072244;28;20057;-64
2021/05/28 04:59:18;;;;;;;2.95;2.45;;;;;;;12.60;100.00;102370.19;5072424;28;20449;-65
2021/05/28 05:01:44;;;;;;;2.28;2.03;;;;;;;12.60;100.00;102370.19;5070808;28;20062;-64
2021/05/28 05:04:09;;;;;;;3.85;2.78;;;;;;;12.62;100.00;102362.56;5071897;28;20085;-66
2021/05/28 05:06:35;;;;;;;7.75;3.28;;;;;;;12.63;100.00;102364.25;5071968;28;20402;-65
2021/05/28 05:09:00;;;;;;;2.72;2.47;;;;;;;12.63;100.00;102361.50;5070425;28;20040;-64
2021/05/28 05:11:26;;;;;;;2.65;2.45;;;;;;;12.67;100.00;102369.09;5071969;28;20040;-63
2021/05/28 05:13:52;;;;;;;6.82;2.95;;;;;;;12.70;100.00;102370.56;5071208;28;20044;-64
2021/05/28 05:16:18;;;;;;;2.90;2.53;;;;;;;12.73;100.00;102369.28;5070548;28;20033;-64
2021/05/28 05:18:45;;;;;;;5.30;2.80;;;;;;;12.77;100.00;102370.53;5071954;28;20036;-64
2021/05/28 05:21:11;;;;;;;3.08;2.83;;;;;;;12.79;100.00;102368.41;5071995;28;20078;-64
2021/05/28 05:23:36;;;;;;;3.97;3.08;;;;;;;12.84;100.00;102372.19;5071421;28;20067;-67
2021/05/28 05:26:02;;;;;;;3.40;2.85;;;;;;;12.90;100.00;102370.44;5071451;28;20039;-63
2021/05/28 05:28:28;;;;;;;5.85;3.00;;;;;;;12.93;100.00;102365.34;5071206;28;20112;-66
2021/05/28 05:30:54;;;;;;;3.72;3.33;;;;;;;12.97;100.00;102366.59;5071566;28;20538;-67
2021/05/28 05:33:19;;;;;;;6.00;3.22;;;;;;;12.98;100.00;102376.50;5069884;28;20040;-63
2021/05/28 05:35:45;;;;;;;5.18;3.15;;;;;;;13.00;100.00;102376.28;5071497;28;20037;-65
2021/05/28 05:38:10;;;;;;;6.00;3.03;;;;;;;13.04;100.00;102371.22;5071215;28;20032;-64
2021/05/28 05:40:38;;;;;;;3.35;2.55;;;;;;;13.05;100.00;102372.91;5071194;28;20036;-65
2021/05/28 05:43:04;;;;;;;2.75;2.40;;;;;;;13.06;100.00;102380.06;5071145;28;20033;-66
2021/05/28 05:45:29;;;;;;;3.45;2.83;;;;;;;13.08;100.00;102377.94;5071179;28;20061;-64
2021/05/28 05:47:55;;;;;;;4.25;2.35;;;;;;;13.13;100.00;102389.06;5071241;28;20036;-67
2021/05/28 05:50:21;;;;;;;4.88;2.45;;;;;;;13.19;100.00;102377.22;5071120;28;20075;-66
2021/05/28 05:52:47;;;;;;;3.47;2.40;;;;;;;13.21;100.00;102380.63;5071054;28;20036;-64
2021/05/28 05:55:13;;;;;;;3.28;3.05;;;;;;;13.25;100.00;102382.69;5069747;28;20040;-65
2021/05/28 05:57:39;;;;;;;4.28;3.25;;;;;;;13.31;100.00;102378.19;5071276;28;20382;-65
2021/05/28 06:00:06;;;;;;;4.35;2.60;;;;;;;13.33;100.00;102370.59;5071345;28;20091;-66
2021/05/28 06:02:32;;;;;;;5.78;3.20;;;;;;;13.33;100.00;102376.06;5071044;28;20460;-65
2021/05/28 06:04:58;;;;;;;2.75;2.55;;;;;;;13.38;100.00;102373.53;5071051;28;20081;-66
2021/05/28 06:07:24;;;;;;;3.78;3.47;;;;;;;13.42;100.00;102374.75;5070992;28;20044;-64
2021/05/28 06:09:50;;;;;;;3.63;3.33;;;;;;;13.50;100.00;102376.34;5070917;28;20502;-64
2021/05/28 06:12:15;;;;;;;3.97;3.35;;;;;;;13.56;100.00;102379.06;5070896;28;20086;-65
2021/05/28 06:14:41;;;;;;;6.88;4.15;;;;;;;13.62;100.00;102381.97;5070655;28;20036;-66
2021/05/28 06:17:07;;;;;;;5.47;2.95;;;;;;;13.68;100.00;102383.81;5070768;28;20413;-65
2021/05/28 06:19:32;;;;;;;5.85;3.08;;;;;;;13.70;100.00;102382.50;5070723;28;20060;-64
2021/05/28 06:21:58;;;;;;;5.53;3.40;;;;;;;13.73;100.00;102382.09;5070895;28;20433;-65
2021/05/28 06:24:23;;;;;;;4.00;2.58;;;;;;;13.78;100.00;102378.66;5070588;28;20097;-63
2021/05/28 06:26:50;;;;;;;2.53;2.33;;;;;;;13.83;100.00;102378.81;5069970;28;20040;-65
2021/05/28 06:29:16;;;;;;;5.03;2.70;;;;;;;13.89;100.00;102383.41;5070494;28;20112;-66
2021/05/28 06:31:42;;;;;;;6.97;2.45;;;;;;;13.95;100.00;102382.50;5070613;28;20044;-63
2021/05/28 06:34:08;;;;;;;2.35;1.77;;;;;;;13.99;100.00;102380.97;5069044;28;20044;-67
2021/05/28 06:36:33;;;;;;;5.45;2.42;;;;;;;14.02;100.00;102380.50;5070449;28;20493;-64
2021/05/28 06:38:59;;;;;;;5.40;1.42;;;;;;;14.01;100.00;102375.25;5070449;28;20380;-64
2021/05/28 06:41:25;;;;;;;3.55;1.58;;;;;;;14.01;100.00;102378.81;5070573;28;20032;-64
2021/05/28 06:43:50;;;;;;;2.47;1.40;;;;;;;14.03;100.00;102375.84;5070453;28;20390;-65
2021/05/28 06:46:16;;;;;;;3.30;1.45;;;;;;;14.03;100.00;102387.69;5070607;28;20394;-64
2021/05/28 06:48:43;;;;;;;2.97;1.20;;;;;;;14.05;100.00;102380.03;5070316;28;20036;-66
2021/05/28 06:51:09;;;;;;;2.00;1.23;;;;;;;14.07;100.00;102380.69;5070350;28;20032;-64
2021/05/28 06:53:35;;;;;;;2.60;1.50;;;;;;;14.06;100.00;102379.00;5070148;28;20119;-66
2021/05/28 06:56:01;;;;;;;4.20;1.20;;;;;;;14.08;100.00;102379.63;5070446;28;20037;-67
2021/05/28 06:58:28;;;;;;;2.63;1.17;;;;;;;14.09;100.00;102375.81;5070431;28;20032;-65
2021/05/28 07:00:55;;;;;;;3.40;1.30;;;;;;;14.08;100.00;102374.13;5070548;28;20517;-64
2021/05/28 07:03:20;;;;;;;1.42;1.23;;;;;;;14.08;100.00;102368.63;5070339;28;20087;-64
2021/05/28 07:05:46;;;;;;;1.90;0.90;;;;;;;14.10;100.00;102371.97;5069217;28;20036;-65
2021/05/28 07:08:12;;;;;;;2.13;1.23;;;;;;;14.11;100.00;102370.91;5070325;28;20510;-64
2021/05/28 07:10:37;;;;;;;2.88;1.20;;;;;;;14.15;100.00;102371.28;5070468;28;20047;-66
2021/05/28 07:13:03;;;;;;;3.60;1.02;;;;;;;14.19;100.00;102370.59;5070333;28;20418;-63
2021/05/28 07:15:29;;;;;;;3.13;1.20;;;;;;;14.21;100.00;102377.75;5070560;28;20390;-65
2021/05/28 07:17:55;;;;;;;2.75;1.10;;;;;;;14.27;100.00;102382.38;5070565;28;20098;-64
2021/05/28 07:20:21;;;;;;;2.55;1.13;;;;;;;14.33;100.00;102376.78;5071028;28;20486;-64
2021/05/28 07:22:47;;;;;;;2.13;0.82;;;;;;;14.40;100.00;102384.94;5070356;28;20098;-64
2021/05/28 07:25:15;;;;;;;2.88;0.95;;;;;;;14.45;100.00;102379.63;5070489;28;20086;-66
2021/05/28 07:27:41;;;;;;;2.20;1.15;;;;;;;14.48;100.00;102371.75;5070215;28;20056;-64
2021/05/28 07:30:08;;;;;;;3.38;1.40;;;;;;;14.50;100.00;102373.44;5070351;28;20055;-65
2021/05/28 07:32:35;;;;;;;4.20;1.15;;;;;;;14.53;100.00;102371.06;5070486;28;20398;-65
2021/05/28 07:35:01;;;;;;;4.50;1.17;;;;;;;14.54;100.00;102374.66;5070111;28;20044;-64
2021/05/28 07:37:26;;;;;;;4.05;1.77;;;;;;;14.54;100.00;102372.75;5071874;28;20094;-66
2021/05/28 07:39:52;;;;;;;2.70;1.25;;;;;;;14.55;100.00;102373.56;5073822;28;20071;-64
2021/05/28 07:42:18;;;;;;;3.95;1.40;;;;;;;14.54;100.00;102371.91;5073717;28;20036;-66
2021/05/28 07:44:45;;;;;;;2.22;1.35;;;;;;;14.56;100.00;102370.59;5073530;28;20041;-65
2021/05/28 07:47:11;;;;;;;5.82;1.42;;;;;;;14.60;100.00;102376.50;5073785;28;20424;-66
2021/05/28 07:49:38;;;;;;;2.38;1.27;;;;;;;14.63;100.00;102376.88;5073733;28;20482;-66
2021/05/28 07:52:05;;;;;;;2.35;1.35;;;;;;;14.65;100.00;102369.22;5073091;28;20487;-63
2021/05/28 07:54:30;;;;;;;5.35;1.40;;;;;;;14.69;100.00;102373.19;5073085;28;20530;-69
2021/05/28 07:56:56;;;;;;;4.00;1.48;;;;;;;14.75;100.00;102375.00;5072763;28;20048;-67
2021/05/28 07:59:22;;;;;;;4.03;1.40;;;;;;;14.81;100.00;102377.91;5068074;28;20052;-65
2021/05/28 08:01:48;;;;;;;2.35;1.30;;;;;;;14.90;100.00;102379.22;5062482;28;20040;-63
2021/05/28 08:04:13;;;;;;;1.92;1.33;;;;;;;14.95;100.00;102373.88;5061270;28;20078;-64
2021/05/28 08:06:39;;;;;;;2.00;1.15;;;;;;;14.99;100.00;102369.59;5072774;28;20044;-63
2021/05/28 08:09:05;;;;;;;2.30;1.63;;;;;;;14.99;100.00;102375.09;5071748;28;20043;-67
2021/05/28 08:11:30;;;;;;;6.22;2.50;;;;;;;15.06;100.00;102373.06;5066424;28;20045;-66
2021/05/28 08:13:57;;;;;;;2.60;2.40;;;;;;;15.10;100.00;102368.81;5070700;28;20048;-66
2021/05/28 08:16:26;;;;;;;5.90;3.05;;;;;;;15.14;100.00;102377.41;5073074;28;20040;-65
2021/05/28 08:18:53;;;;;;;9.10;4.20;;;;;;;15.16;100.00;102367.84;5072352;28;20051;-67
2021/05/28 08:21:18;;;;;;;5.15;3.28;;;;;;;15.17;100.00;102372.28;5072589;28;20486;-65
2021/05/28 08:23:44;;;;;;;5.45;3.10;;;;;;;15.21;100.00;102367.13;5071079;28;20036;-63
2021/05/28 08:26:10;;;;;;;3.78;2.55;;;;;;;15.25;100.00;102380.19;5072492;28;20495;-66
2021/05/28 08:28:37;;;;;;;5.30;2.97;;;;;;;15.30;100.00;102377.59;5072393;28;20090;-66
2021/05/28 08:31:04;;;;;;;7.57;3.08;;;;;;;15.37;100.00;102383.81;5072311;28;20044;-65
2021/05/28 08:33:30;;;;;;;5.55;3.70;;;;;;;15.43;100.00;102375.66;5072166;28;20040;-64
2021/05/28 08:35:56;;;;;;;6.43;4.45;;;;;;;15.48;100.00;102384.91;5070260;28;20527;-64
2021/05/28 08:38:22;;;;;;;8.18;4.22;;;;;;;15.55;100.00;102379.28;5072102;28;20123;-66
2021/05/28 08:40:48;;;;;;;5.78;4.40;;;;;;;15.62;100.00;102380.06;5072394;28;20510;-65
2021/05/28 08:43:14;;;;;;;10.93;6.22;;;;;;;15.72;100.00;102385.78;5072456;28;20033;-65
2021/05/28 08:45:42;;;;;;;8.98;5.80;;;;;;;15.84;100.00;102383.88;5072490;28;20037;-65
2021/05/28 08:48:10;;;;;;;10.18;5.28;;;;;;;15.97;100.00;102378.13;5071655;28;20032;-65
2021/05/28 08:50:37;;;;;;;11.93;6.13;;;;;;;16.13;100.00;102375.69;5072206;28;20387;-65
2021/05/28 08:53:05;;;;;;;7.20;5.55;;;;;;;16.28;100.00;102367.75;5072044;28;20063;-66
2021/05/28 08:55:31;;;;;;;7.07;4.72;;;;;;;16.43;100.00;102375.53;5072160;28;20044;-65
2021/05/28 08:57:58;;;;;;;6.72;5.20;;;;;;;16.56;100.00;102365.06;5072187;28;20060;-65
2021/05/28 09:00:26;;;;;;;6.72;4.95;;;;;;;16.71;100.00;102372.00;5072161;28;20089;-65
2021/05/28 09:02:54;;;;;;;5.85;4.13;;;;;;;16.80;100.00;102370.50;5071884;28;20083;-65
2021/05/28 09:05:23;;;;;;;8.15;5.10;;;;;;;16.86;100.00;102364.03;5072101;28;20043;-65
2021/05/28 09:07:57;;;;;;;8.57;4.28;;;;;;;16.89;100.00;102358.00;5071868;28;20360;-65
2021/05/28 09:10:29;;;;;;;6.72;4.18;;;;;;;16.90;100.00;102359.69;5070575;28;20349;-65
2021/05/28 09:13:06;;;;;;;5.88;3.97;;;;;;;16.88;100.00;102359.09;5071551;28;20069;-65
2021/05/28 09:15:32;;;;;;;4.90;4.00;;;;;;;16.87;100.00;102351.91;5071808;28;20099;-65
2021/05/28 09:17:58;;;;;;;13.55;4.40;;;;;;;16.85;100.00;102354.91;5071936;28;20059;-65
2021/05/28 09:20:23;;;;;;;7.07;3.75;;;;;;;16.87;100.00;102354.66;5071664;28;20390;-65
2021/05/28 09:23:17;;;;;;;4.38;3.85;;;;;;;16.87;100.00;102357.41;5071647;28;20424;-65
2021/05/28 09:26:05;;;;;;;4.50;4.10;;;;;;;16.91;100.00;102355.81;5071591;28;20037;-65
2021/05/28 09:28:44;;;;;;;;;;;;;;;16.98;100.00;102361.19;5071695;28;20059;-65
2021/05/28 09:31:16;;;;;;;8.13;4.50;;;;;;;17.02;100.00;102357.69;5071426;28;19942;-65
2021/05/28 09:33:48;;;;;;;8.93;4.20;;;;;;;17.04;100.00;102355.53;5071331;28;20033;-65
2021/05/28 09:36:15;;;;;;;5.57;3.92;;;;;;;17.11;100.00;102350.66;5051540;28;20135;-65
2021/05/28 09:38:53;;;;;;;3.83;3.42;;;;;;;17.15;100.00;102340.78;5051359;28;20037;-65
2021/05/28 09:41:35;;;;;;;5.22;3.15;;;;;;;17.22;100.00;102348.94;5051473;28;20072;-65
2021/05/28 09:44:08;;;;;;;6.47;3.90;;;;;;;17.23;100.00;102347.00;5051176;28;20029;-65
2021/05/28 09:46:34;;;;;;;6.55;3.25;;;;;;;17.25;100.00;102350.34;5051253;28;20033;-65
2021/05/28 09:49:10;;;;;;;6.03;3.67;;;;;;;17.27;100.00;102342.66;5051180;28;20037;-65
2021/05/28 09:51:37;;;;;;;6.78;3.42;;;;;;;17.33;100.00;102352.69;5051336;28;20543;-65
2021/05/28 09:54:16;;;;;;;4.93;3.13;;;;;;;17.37;100.00;102342.84;5051099;28;20139;-65
2021/05/28 09:56:43;;;;;;;3.85;2.95;;;;;;;17.42;100.00;102331.88;5051346;28;20036;-65
2021/05/28 09:59:09;;;;;;;4.30;2.83;;;;;;;17.43;100.00;102347.34;5051007;28;20104;-65
2021/05/28 10:01:52;;;;;;;6.60;3.75;;;;;;;17.45;100.00;102339.63;5050861;28;20071;-65
2021/05/28 10:04:18;;;;;;;4.05;2.90;;;;;;;17.47;100.00;102329.16;5050883;28;20116;-65
2021/05/28 10:06:44;;;;;;;4.63;2.70;;;;;;;17.52;100.00;102337.53;5050925;28;20043;-65
2021/05/28 10:09:13;;;;;;;3.78;2.60;;;;;;;17.63;100.00;102336.59;5050940;28;20044;-65
2021/05/28 10:11:39;;;;;;;3.05;2.05;;;;;;;17.74;100.00;102341.25;5050757;28;20033;-65
2021/05/28 10:14:07;;;;;;;4.30;2.10;;;;;;;17.90;100.00;102342.31;5062244;28;20041;-65
2021/05/28 10:16:38;;;;;;;3.30;1.92;;;;;;;18.09;100.00;102342.84;5102364;28;20048;-65
2021/05/28 10:19:04;;;;;;;5.30;2.22;;;;;;;18.25;100.00;102341.94;5070686;28;20036;-65
2021/05/28 10:21:30;;;;;;;4.72;2.20;;;;;;;18.42;100.00;102344.66;5070641;28;20033;-65
2021/05/28 10:23:58;;;;;;;4.38;2.33;;;;;;;18.58;100.00;102337.38;5069253;28;20031;-66
2021/05/28 10:26:28;;;;;;;5.13;2.38;;;;;;;18.68;100.00;102337.50;5070770;28;20048;-65
2021/05/28 10:28:54;;;;;;;4.80;2.70;;;;;;;18.78;100.00;102332.06;5070679;28;20384;-66
2021/05/28 10:31:55;;;;;;;5.20;2.22;;;;;;;18.86;100.00;102339.06;5070688;28;20043;-65
2021/05/28 10:34:22;;;;;;;10.13;3.00;;;;;;;18.96;100.00;102340.00;5070427;28;20036;-65
2021/05/28 10:36:48;;;;;;;3.38;2.30;;;;;;;19.16;100.00;102341.31;5070620;28;20065;-66
2021/05/28 10:39:16;;;;;;;3.70;1.92;;;;;;;19.40;100.00;102342.59;5070467;28;20513;-66
2021/05/28 10:41:53;;;;;;;3.30;1.88;;;;;;;19.64;100.00;102339.50;5070534;28;20063;-65
2021/05/28 10:44:26;;;;;;;5.45;2.00;;;;;;;19.86;100.00;102337.41;5070316;28;20128;-65
2021/05/28 10:47:19;;;;;;;5.53;1.95;;;;;;;20.07;100.00;102335.59;5057706;28;20123;-66
2021/05/28 10:50:02;;;;;;;4.57;1.75;;;;;;;20.28;100.00;102329.03;5070273;28;20071;-66
2021/05/28 10:52:36;;;;;;;2.95;1.65;;;;;;;20.42;100.00;102330.22;5070473;28;20111;-64
2021/05/28 10:55:09;;;;;;;2.35;1.73;;;;;;;20.52;100.00;102332.22;5070258;28;20048;-64
2021/05/28 10:57:52;;;;;;;3.92;2.35;;;;;;;20.60;100.00;102331.66;5070467;28;20054;-63
2021/05/28 11:00:44;;;;;;;2.97;1.85;;;;;;;20.61;100.00;102333.34;5070323;28;20043;-65
2021/05/28 11:03:12;;;;;;;4.32;1.70;;;;;;;20.58;100.00;102339.44;5047693;28;20406;-66
2021/05/28 11:05:43;;;;;;;2.03;1.13;;;;;;;20.52;100.00;102337.75;5069693;28;20060;-66
2021/05/28 11:08:42;;;;;;;2.83;1.40;;;;;;;20.47;100.00;102338.56;5070381;28;20037;-63
2021/05/28 11:11:09;;;;;;;3.00;1.65;;;;;;;20.41;100.00;102338.81;5070303;28;20071;-64
2021/05/28 11:13:58;;;;;;;2.75;1.65;;;;;;;20.35;100.00;102337.13;5073755;28;20044;-65
2021/05/28 11:16:25;;;;;;;9.43;2.63;;;;;;;20.23;100.00;102336.50;5074062;28;20033;-64